createdAt,value
2022-12-18T00:05:57.743Z,100918.78
2022-12-18T00:18:28.758Z,100942.13
2022-12-18T00:24:34.243Z,100951.53
2022-12-18T00:30:40.399Z,100945.16
2022-12-18T00:36:52.257Z,100932.03
2022-12-18T00:43:02.590Z,100947.66
2022-12-18T00:49:05.202Z,100835.72
2022-12-18T00:55:10.668Z,100982.47
2022-12-18T01:01:15.258Z,100985.16
2022-12-18T01:07:31.303Z,100982.69
2022-12-18T01:13:37.439Z,100985.88
2022-12-18T01:19:42.615Z,100991.28
2022-12-18T01:25:48.127Z,101000.66
2022-12-18T01:31:58.999Z,100946.13
2022-12-18T01:38:02.102Z,101005.31
2022-12-18T01:44:46.864Z,100986.31
2022-12-18T01:50:51.181Z,100969.28
2022-12-18T01:57:06.692Z,100987.28
2022-12-18T02:03:16.151Z,101032.63
2022-12-18T02:09:32.737Z,101067.81
2022-12-18T02:15:50.622Z,101048.97
2022-12-18T02:21:55.739Z,101074.56
2022-12-18T02:28:09.497Z,101076.13
2022-12-18T02:34:14.795Z,101092.09
2022-12-18T02:40:19.233Z,101066.28
2022-12-18T02:46:33.959Z,101069.84
2022-12-18T02:53:00.308Z,101101.63
2022-12-18T02:59:09.791Z,101080.81
2022-12-18T03:05:18.271Z,101112.03
2022-12-18T03:11:40.822Z,101093.16
2022-12-18T03:17:51.320Z,101125.66
2022-12-18T03:23:56.781Z,101088.16
2022-12-18T03:30:14.274Z,101128.41
2022-12-18T03:36:20.743Z,101144.34
2022-12-18T03:42:31.251Z,101116.25
2022-12-18T03:48:43.747Z,101162.63
2022-12-18T03:54:48.219Z,101173.75
2022-12-18T04:01:02.748Z,101192.59
2022-12-18T04:07:07.246Z,101205.34
2022-12-18T04:13:12.681Z,101216.78
2022-12-18T04:19:15.109Z,101225.69
2022-12-18T04:25:20.572Z,101238.09
2022-12-18T04:31:24.103Z,101202.53
2022-12-18T04:37:26.526Z,101243.28
2022-12-18T04:43:29.028Z,101258.94
2022-12-18T04:49:31.480Z,101260.53
2022-12-18T04:55:34.946Z,101265.97
2022-12-18T05:01:37.519Z,101281.38
2022-12-18T05:07:39.872Z,101296.84
2022-12-18T05:13:48.327Z,101269.31
2022-12-18T05:19:50.186Z,101269.78
2022-12-18T05:26:14.625Z,101316.59
2022-12-18T05:32:18.209Z,101334.97
2022-12-18T05:38:24.249Z,101312.63
2022-12-18T05:44:26.742Z,101358.97
2022-12-18T05:50:29.192Z,101377.19
2022-12-18T05:56:31.686Z,101378.16
2022-12-18T06:02:36.655Z,101412.50
2022-12-18T06:08:45.873Z,101394.69
2022-12-18T06:14:51.235Z,101390.41
2022-12-18T06:21:01.634Z,101369.94
2022-12-18T06:27:06.243Z,101432.09
2022-12-18T06:33:11.565Z,101461.53
2022-12-18T06:39:14.038Z,101482.94
2022-12-18T06:45:17.525Z,101485.81
2022-12-18T06:51:25.996Z,101494.50
2022-12-18T06:57:30.413Z,101512.19
2022-12-18T07:03:35.962Z,101482.63
2022-12-18T07:09:40.423Z,101517.25
2022-12-18T07:15:44.628Z,101505.78
2022-12-18T07:28:19.988Z,101550.69
2022-12-18T07:34:27.688Z,101571.16
2022-12-18T07:40:31.400Z,101576.06
2022-12-18T07:46:34.466Z,101585.47
2022-12-18T07:52:41.847Z,101596.03
2022-12-18T07:58:55.387Z,101619.59
2022-12-18T08:05:00.334Z,101624.38
2022-12-18T08:11:07.392Z,101630.88
2022-12-18T08:17:09.835Z,101669.97
2022-12-18T08:23:12.292Z,101663.16
2022-12-18T08:29:21.353Z,101690.75
2022-12-18T08:35:25.478Z,101701.25
2022-12-18T08:41:41.016Z,101708.91
2022-12-18T08:47:45.159Z,101652.78
2022-12-18T08:53:57.475Z,101709.78
2022-12-18T09:00:14.198Z,101605.25
2022-12-18T09:06:21.824Z,101704.53
2022-12-18T09:12:29.251Z,101720.56
2022-12-18T09:18:51.331Z,101530.09
2022-12-18T09:25:06.372Z,101615.88
2022-12-18T09:31:15.798Z,101674.47
2022-12-18T09:38:51.885Z,101697.72
2022-12-18T09:45:55.244Z,101705.53
2022-12-18T09:51:40.748Z,101720.19
2022-12-18T09:57:51.260Z,101740.06
2022-12-18T10:03:57.348Z,101702.09
2022-12-18T10:10:12.274Z,101692.22
2022-12-18T10:16:21.787Z,101620.22
2022-12-18T10:22:41.293Z,101767.84
2022-12-18T10:28:44.890Z,101779.53
2022-12-18T10:34:59.831Z,101713.78
2022-12-18T10:41:24.888Z,101774.59
2022-12-18T10:47:30.598Z,101670.91
2022-12-18T10:53:36.418Z,101782.81
2022-12-18T10:59:59.269Z,101780.50
2022-12-18T11:06:10.785Z,101794.25
2022-12-18T11:12:25.297Z,101658.13
2022-12-18T11:18:40.113Z,101809.94
2022-12-18T11:31:32.495Z,101824.19
2022-12-18T11:37:40.303Z,101802.56
2022-12-18T11:43:54.870Z,101830.97
2022-12-18T11:50:08.870Z,101834.06
2022-12-18T11:56:34.050Z,101840.72
2022-12-18T12:03:10.625Z,101852.94
2022-12-18T12:09:55.244Z,101859.22
2022-12-18T12:16:05.784Z,101826.03
2022-12-18T12:23:07.233Z,101865.34
2022-12-18T12:29:45.015Z,101789.84
2022-12-18T12:36:02.611Z,101841.09
2022-12-18T12:42:40.439Z,101890.66
2022-12-18T12:48:57.702Z,101893.50
2022-12-18T12:55:02.151Z,101889.22
2022-12-18T13:01:47.099Z,101901.31
2022-12-18T13:08:09.840Z,101881.28
2022-12-18T13:14:35.805Z,101912.00
2022-12-18T13:20:53.621Z,101917.53
2022-12-18T13:27:06.301Z,101922.91
2022-12-18T13:33:18.378Z,101940.44
2022-12-18T13:39:29.980Z,101945.69
2022-12-18T13:45:44.710Z,101944.88
2022-12-18T13:51:52.869Z,101956.25
2022-12-18T13:58:06.391Z,101963.75
2022-12-18T14:04:17.246Z,101980.59
2022-12-18T14:10:45.583Z,101724.81
2022-12-18T14:16:45.001Z,101951.44
2022-12-18T14:22:50.376Z,101964.25
2022-12-18T14:28:52.868Z,102017.50
2022-12-18T14:34:56.324Z,102024.69
2022-12-18T14:41:02.803Z,102032.53
2022-12-18T14:47:05.278Z,102025.56
2022-12-18T14:53:10.720Z,101994.28
2022-12-18T14:59:23.964Z,102054.53
2022-12-18T15:05:33.703Z,102069.41
2022-12-18T15:11:42.197Z,102066.25
2022-12-18T15:17:44.633Z,102072.97
2022-12-18T15:23:53.119Z,102082.16
2022-12-18T15:30:25.717Z,101935.28
2022-12-18T15:36:32.560Z,102035.13
2022-12-18T15:42:53.684Z,102090.25
2022-12-18T15:49:02.534Z,102106.78
2022-12-18T15:55:25.688Z,102099.72
2022-12-18T16:01:39.577Z,102113.44
2022-12-18T16:07:59.591Z,102125.28
2022-12-18T16:14:02.237Z,102153.59
2022-12-18T16:20:04.728Z,102106.75
2022-12-18T16:26:16.283Z,102159.03
2022-12-18T16:32:21.652Z,102145.13
2022-12-18T16:38:26.000Z,102104.78
2022-12-18T16:44:32.221Z,102189.56
2022-12-18T16:50:39.013Z,102187.75
2022-12-18T16:56:43.590Z,102138.22
2022-12-18T17:02:52.136Z,102150.50
2022-12-18T17:09:02.560Z,102193.84
2022-12-18T17:15:07.418Z,102200.09
2022-12-18T17:21:11.554Z,102196.94
2022-12-18T17:27:18.999Z,102207.72
2022-12-18T17:33:30.569Z,102032.63
2022-12-18T17:39:59.558Z,102050.97
2022-12-18T17:46:06.588Z,102229.81
2022-12-18T17:52:15.997Z,102226.44
2022-12-18T17:58:21.514Z,102241.22
2022-12-18T18:04:23.994Z,102253.31
2022-12-18T18:10:26.429Z,102221.94
2022-12-18T18:16:51.040Z,102229.44
2022-12-18T18:23:07.837Z,102281.19
2022-12-18T18:29:26.953Z,102273.66
2022-12-18T18:42:03.338Z,102274.59
2022-12-18T18:48:10.075Z,102256.22
2022-12-18T18:54:20.890Z,102296.00
2022-12-18T19:00:27.763Z,102300.28
2022-12-18T19:06:42.099Z,102252.97
2022-12-18T19:13:05.592Z,102242.50
2022-12-18T19:19:18.091Z,102303.84
2022-12-18T19:25:28.158Z,102317.88
2022-12-18T19:31:50.244Z,102302.22
2022-12-18T19:37:57.681Z,102273.41
2022-12-18T19:44:20.305Z,102350.41
2022-12-18T19:50:22.658Z,102344.50
2022-12-18T19:56:27.144Z,102355.88
2022-12-18T20:03:02.440Z,102137.84
2022-12-18T20:09:15.710Z,102347.59
2022-12-18T20:15:46.653Z,102159.16
2022-12-18T20:21:56.299Z,102383.00
2022-12-18T20:28:10.597Z,102377.63
2022-12-18T20:34:13.361Z,102384.13
2022-12-18T20:40:33.273Z,102344.09
2022-12-18T20:47:59.786Z,102289.97
2022-12-18T20:53:30.175Z,102403.22
2022-12-18T20:59:37.081Z,102385.28
2022-12-18T21:05:41.964Z,102398.19
2022-12-18T21:12:17.584Z,102396.59
2022-12-18T21:18:20.121Z,102404.41
2022-12-18T21:24:37.850Z,102416.78
2022-12-18T21:30:59.081Z,102382.78
2022-12-18T21:37:08.404Z,102270.91
2022-12-18T21:43:29.124Z,102403.84
2022-12-18T21:49:40.279Z,102428.75
2022-12-18T21:55:48.119Z,102438.09
2022-12-18T22:02:01.730Z,102436.22
2022-12-18T22:08:16.366Z,102429.31
2022-12-18T22:14:23.776Z,102294.16
2022-12-18T22:20:34.065Z,102382.44
2022-12-18T22:26:45.245Z,102441.19
2022-12-18T22:32:59.009Z,102394.03
2022-12-18T22:39:26.747Z,102458.06
2022-12-18T22:46:03.082Z,102367.34
2022-12-18T22:52:10.739Z,102463.56
2022-12-18T22:58:23.628Z,102456.75
2022-12-18T23:04:49.064Z,102501.53
2022-12-18T23:11:04.255Z,102487.41
2022-12-18T23:17:14.448Z,102492.72
2022-12-18T23:30:12.207Z,102480.97
2022-12-18T23:36:24.480Z,102492.31
2022-12-18T23:42:58.002Z,102495.94
2022-12-18T23:49:06.503Z,102507.63
2022-12-18T23:55:15.942Z,102494.16
